Regent, North Dakota
Current Conditions -  °F | °C
As of 1:53 AM on Sunday 21 Dec 2014 (Local Time) from KHEI Reporting Station
Clear Clear  
Wind Chill: 27°   Ceiling: Unl
Heat Index: 27°   Visibility: 10mi
Dew Point: 21°   Wind: 0mph
Humidity: 78%   Direction: NA
Pressure: 29.69"   Gusts: NA
Location:  46.42°N, 102.56°W
Report Text: KHEI 210853Z AUTO 00000KT 10SM CLR M03/M06 A2969 RMK AO2 SLP073 T10281061 56021
Loading
Personal Weather Stations






























Interactive Weather Map New forecast layout! Learn more

10-Day Weather Forecast

Advertisements
Track Severe Weather on mobile